createdAt,value
2019-01-05T00:00:49.825Z,35.23
2019-01-05T00:03:32.261Z,37.20
2019-01-05T00:06:05.754Z,37.83
2019-01-05T00:08:41.429Z,39.67
2019-01-05T00:11:11.760Z,36.50
2019-01-05T00:13:56.823Z,37.77
2019-01-05T00:16:29.447Z,37.67
2019-01-05T00:19:16.047Z,37.60
2019-01-05T00:21:54.682Z,38.63
2019-01-05T00:24:28.105Z,33.40
2019-01-05T00:27:17.165Z,39.47
2019-01-05T00:29:47.574Z,38.07
2019-01-05T00:32:40.789Z,38.90
2019-01-05T00:35:33.161Z,38.63
2019-01-05T00:38:18.038Z,38.17
2019-01-05T00:40:54.923Z,38.97
2019-01-05T00:43:25.018Z,39.90
2019-01-05T00:46:12.008Z,38.80
2019-01-05T00:48:58.982Z,39.23
2019-01-05T00:51:44.751Z,38.33
2019-01-05T00:54:32.698Z,37.67
2019-01-05T00:57:13.041Z,37.13
2019-01-05T00:59:55.303Z,38.70
2019-01-05T01:02:41.912Z,38.23
2019-01-05T01:05:14.900Z,38.77
2019-01-05T01:07:53.710Z,37.70
2019-01-05T01:10:26.216Z,36.60
2019-01-05T01:12:58.744Z,37.17
2019-01-05T01:15:32.113Z,36.70
2019-01-05T01:18:04.904Z,37.30
2019-01-05T01:20:35.004Z,36.50
2019-01-05T01:23:05.915Z,36.63
2019-01-05T01:25:52.361Z,37.30
2019-01-05T01:28:39.354Z,37.97
2019-01-05T01:31:25.459Z,37.80
2019-01-05T01:33:55.514Z,37.40
2019-01-05T01:36:40.945Z,37.50
2019-01-05T01:39:19.970Z,38.00
2019-01-05T01:41:50.182Z,36.43
2019-01-05T01:44:37.126Z,39.30
2019-01-05T01:47:13.053Z,35.07
2019-01-05T01:49:47.175Z,37.00
2019-01-05T01:52:17.296Z,36.97
2019-01-05T01:54:49.846Z,39.37
2019-01-05T01:57:26.023Z,38.03
2019-01-05T02:00:10.529Z,38.53
2019-01-05T02:02:55.919Z,40.60
2019-01-05T02:05:26.096Z,39.20
2019-01-05T02:07:56.902Z,37.57
2019-01-05T02:10:34.661Z,40.00
2019-01-05T02:13:06.404Z,38.83
2019-01-05T02:15:53.363Z,39.40
2019-01-05T02:18:35.413Z,37.60
2019-01-05T02:21:44.451Z,37.53
2019-01-05T02:24:32.679Z,37.63
2019-01-05T02:27:24.759Z,40.07
2019-01-05T02:30:21.584Z,39.73
2019-01-05T02:33:18.337Z,38.53
2019-01-05T02:36:09.596Z,38.27
2019-01-05T02:38:57.257Z,41.40
2019-01-05T02:41:44.692Z,41.33
2019-01-05T02:44:29.681Z,39.73
2019-01-05T02:47:48.478Z,38.93
2019-01-05T02:50:21.670Z,39.57
2019-01-05T02:53:09.591Z,40.50
2019-01-05T02:56:19.778Z,41.13
2019-01-05T02:59:13.902Z,39.20
2019-01-05T03:02:23.122Z,38.80
2019-01-05T03:05:10.632Z,38.93
2019-01-05T03:08:09.705Z,39.57
2019-01-05T03:10:59.600Z,42.60
2019-01-05T03:14:17.832Z,38.80
2019-01-05T03:17:26.782Z,44.47
2019-01-05T03:20:19.642Z,42.27
2019-01-05T03:23:19.865Z,40.87
2019-01-05T03:26:23.088Z,43.97
2019-01-05T03:29:16.012Z,45.53
2019-01-05T03:32:25.036Z,43.67
2019-01-05T03:35:10.013Z,46.47
2019-01-05T03:38:02.432Z,45.67
2019-01-05T03:40:56.751Z,46.07
2019-01-05T03:43:47.601Z,53.50
2019-01-05T03:46:41.369Z,48.90
2019-01-05T03:49:26.412Z,48.13
2019-01-05T03:52:27.141Z,49.20
2019-01-05T03:55:36.431Z,43.50
2019-01-05T03:58:30.649Z,43.93
2019-01-05T04:01:51.190Z,44.30
2019-01-05T04:04:57.783Z,45.30
2019-01-05T04:07:52.009Z,44.97
2019-01-05T04:10:47.236Z,45.03
2019-01-05T04:13:36.962Z,44.53
2019-01-05T04:16:16.220Z,44.87
2019-01-05T04:19:01.025Z,47.03
2019-01-05T04:22:07.413Z,46.37
2019-01-05T04:25:02.930Z,41.73
2019-01-05T04:28:11.641Z,46.47
2019-01-05T04:30:56.400Z,44.60
2019-01-05T04:33:41.172Z,42.77
2019-01-05T04:36:52.176Z,42.93
2019-01-05T04:40:00.234Z,42.57
2019-01-05T04:43:03.574Z,42.77
2019-01-05T04:46:10.981Z,40.07
2019-01-05T04:49:20.578Z,37.73
2019-01-05T04:52:25.468Z,40.20
2019-01-05T04:55:14.685Z,38.27
2019-01-05T04:58:20.674Z,36.57
2019-01-05T05:01:24.504Z,34.77
2019-01-05T05:04:33.727Z,34.60
2019-01-05T05:07:27.645Z,33.83
2019-01-05T05:10:33.609Z,33.80
2019-01-05T05:13:35.125Z,31.87
2019-01-05T05:16:33.856Z,30.83
2019-01-05T05:19:35.083Z,29.70
2019-01-05T05:22:37.940Z,29.87
2019-01-05T05:25:48.409Z,29.47
2019-01-05T05:28:30.446Z,31.20
2019-01-05T05:31:34.034Z,27.00
2019-01-05T05:34:38.960Z,26.40
2019-01-05T05:37:50.766Z,26.53
2019-01-05T05:40:41.643Z,25.20
2019-01-05T05:43:43.466Z,24.57
2019-01-05T05:46:42.195Z,25.37
2019-01-05T05:49:46.942Z,23.80
2019-01-05T05:52:37.947Z,26.63
2019-01-05T05:55:39.853Z,25.27
2019-01-05T05:58:27.456Z,24.27
2019-01-05T06:01:28.863Z,24.67
2019-01-05T06:04:21.480Z,26.13
2019-01-05T06:07:30.778Z,27.00
2019-01-05T06:10:41.752Z,25.93
2019-01-05T06:13:39.736Z,27.10
2019-01-05T06:16:35.614Z,27.03
2019-01-05T06:19:36.054Z,20.93
2019-01-05T06:22:33.528Z,26.93
2019-01-05T06:25:39.338Z,27.67
2019-01-05T06:28:55.224Z,25.03
2019-01-05T06:32:19.645Z,26.23
2019-01-05T06:35:04.711Z,26.13
2019-01-05T06:37:49.591Z,24.37
2019-01-05T06:40:28.356Z,27.37
2019-01-05T06:43:46.953Z,26.87
2019-01-05T06:46:34.358Z,27.63
2019-01-05T06:49:39.355Z,25.70
2019-01-05T06:52:44.023Z,25.90
2019-01-05T06:55:37.579Z,25.53
2019-01-05T06:58:31.194Z,25.80
2019-01-05T07:01:35.558Z,27.03
2019-01-05T07:04:34.367Z,26.13
2019-01-05T07:10:23.667Z,27.33
2019-01-05T07:13:22.028Z,27.40
2019-01-05T07:16:22.954Z,28.40
2019-01-05T07:19:38.195Z,27.30
2019-01-05T07:22:20.038Z,27.67
2019-01-05T07:25:19.058Z,28.57
2019-01-05T07:28:27.866Z,27.93
2019-01-05T07:31:29.470Z,27.63
2019-01-05T07:37:37.751Z,29.00
2019-01-05T07:40:42.519Z,25.27
2019-01-05T07:43:57.696Z,30.47
2019-01-05T07:47:10.513Z,30.73
2019-01-05T07:50:09.440Z,30.67
2019-01-05T07:53:26.087Z,31.07
2019-01-05T07:56:43.082Z,32.77
2019-01-05T07:59:47.427Z,32.10
2019-01-05T08:02:41.682Z,32.57
2019-01-05T08:05:53.420Z,30.33
2019-01-05T08:08:49.070Z,34.00
2019-01-05T08:11:31.195Z,34.03
2019-01-05T08:14:19.382Z,32.60
2019-01-05T08:17:18.240Z,32.50
2019-01-05T08:20:24.890Z,45.13
2019-01-05T08:23:27.088Z,33.67
2019-01-05T08:26:18.206Z,33.37
2019-01-05T08:29:16.961Z,34.13
2019-01-05T08:32:23.438Z,33.50
2019-01-05T08:35:04.968Z,33.70
2019-01-05T08:38:22.493Z,32.90
2019-01-05T08:41:28.906Z,34.77
2019-01-05T08:44:25.426Z,33.13
2019-01-05T08:50:46.091Z,29.70
2019-01-05T08:53:56.045Z,31.57
2019-01-05T08:56:57.370Z,29.33
2019-01-05T08:59:50.145Z,29.07
2019-01-05T09:02:52.150Z,31.27
2019-01-05T09:06:09.242Z,29.33
2019-01-05T09:09:15.321Z,31.40
2019-01-05T09:12:10.983Z,30.73
2019-01-05T09:15:02.202Z,34.13
2019-01-05T09:17:47.056Z,30.90
2019-01-05T09:20:57.798Z,31.50
2019-01-05T09:23:46.103Z,30.47
2019-01-05T09:27:00.173Z,31.93
2019-01-05T09:29:55.812Z,30.40
2019-01-05T09:32:40.996Z,29.40
2019-01-05T09:35:26.495Z,30.33
2019-01-05T09:38:23.722Z,31.30
2019-01-05T09:41:09.217Z,31.73
2019-01-05T09:44:21.824Z,31.50
2019-01-05T09:47:13.258Z,32.33
2019-01-05T09:50:28.729Z,32.57
2019-01-05T09:53:36.388Z,32.17
2019-01-05T09:56:21.310Z,31.97
2019-01-05T09:59:37.994Z,33.57
2019-01-05T10:02:39.539Z,32.13
2019-01-05T10:05:19.097Z,31.63
2019-01-05T10:08:12.041Z,30.50
2019-01-05T10:11:00.524Z,30.23
2019-01-05T10:14:14.506Z,30.17
2019-01-05T10:17:11.327Z,29.37
2019-01-05T10:20:01.328Z,27.53
2019-01-05T10:23:16.731Z,26.97
2019-01-05T10:26:24.391Z,27.37
2019-01-05T10:29:22.596Z,27.77
2019-01-05T10:32:12.988Z,26.83
2019-01-05T10:35:35.763Z,26.87
2019-01-05T10:38:31.599Z,25.97
2019-01-05T10:41:34.992Z,25.87
2019-01-05T10:44:27.397Z,25.40
2019-01-05T10:47:21.695Z,25.50
2019-01-05T10:50:03.727Z,24.37
2019-01-05T10:53:21.871Z,26.67
2019-01-05T10:56:28.359Z,24.67
2019-01-05T10:59:37.499Z,24.33
2019-01-05T11:02:34.565Z,23.63
2019-01-05T11:05:49.572Z,24.67
2019-01-05T11:08:37.305Z,24.80
2019-01-05T11:11:42.063Z,25.37
2019-01-05T11:14:51.417Z,24.30
2019-01-05T11:17:55.027Z,25.20
2019-01-05T11:20:53.590Z,24.20
2019-01-05T11:23:58.524Z,23.97
2019-01-05T11:27:05.381Z,22.97
2019-01-05T11:29:58.520Z,22.23
2019-01-05T11:33:15.978Z,24.40
2019-01-05T11:36:07.077Z,22.80
2019-01-05T11:39:09.289Z,23.27
2019-01-05T11:42:11.367Z,21.60
2019-01-05T11:45:06.378Z,20.63
2019-01-05T11:47:54.436Z,20.47
2019-01-05T11:50:52.804Z,20.27
2019-01-05T11:53:49.364Z,21.60
2019-01-05T11:57:04.448Z,20.73
2019-01-05T11:59:55.382Z,20.10
2019-01-05T12:02:46.577Z,19.57
2019-01-05T12:06:02.202Z,19.60
2019-01-05T12:09:07.897Z,18.80
2019-01-05T12:11:47.160Z,20.07
2019-01-05T12:14:25.932Z,20.10
2019-01-05T12:17:34.104Z,19.60
2019-01-05T12:20:58.432Z,18.27
2019-01-05T12:24:04.280Z,18.63
2019-01-05T12:27:18.059Z,17.57
2019-01-05T12:30:22.616Z,17.37
2019-01-05T12:33:17.143Z,16.93
2019-01-05T12:36:01.955Z,18.10
2019-01-05T12:39:14.444Z,17.30
2019-01-05T12:42:20.223Z,17.70
2019-01-05T12:45:17.206Z,17.17
2019-01-05T12:48:12.587Z,17.20
2019-01-05T12:51:00.766Z,16.70
2019-01-05T12:54:07.449Z,16.17
2019-01-05T12:57:06.452Z,17.03
2019-01-05T13:00:09.787Z,18.63
2019-01-05T13:03:22.395Z,17.90
2019-01-05T13:06:31.535Z,19.20
2019-01-05T13:09:36.684Z,19.90
2019-01-05T13:12:38.438Z,19.93
2019-01-05T13:15:32.463Z,19.40
2019-01-05T13:18:20.294Z,19.27
2019-01-05T13:21:29.695Z,19.97
2019-01-05T13:24:31.652Z,20.30
2019-01-05T13:27:22.851Z,19.43
2019-01-05T13:30:13.103Z,19.07
2019-01-05T13:33:16.525Z,18.37
2019-01-05T13:36:08.898Z,18.60
2019-01-05T13:39:21.018Z,17.83
2019-01-05T13:42:21.093Z,17.00
2019-01-05T13:45:40.745Z,16.70
2019-01-05T13:48:22.480Z,16.53
2019-01-05T13:51:30.338Z,15.90
2019-01-05T13:54:17.033Z,16.53
2019-01-05T13:56:59.020Z,14.50
2019-01-05T13:59:34.744Z,14.40
2019-01-05T14:02:21.248Z,14.47
2019-01-05T14:04:53.716Z,13.40
2019-01-05T14:07:23.798Z,13.17
2019-01-05T14:10:10.128Z,12.93
2019-01-05T14:12:51.845Z,12.17
2019-01-05T14:15:24.735Z,11.10
2019-01-05T14:17:57.609Z,10.53
2019-01-05T14:20:27.874Z,9.80
2019-01-05T14:23:00.621Z,9.93
2019-01-05T14:25:31.130Z,9.67
2019-01-05T14:28:16.301Z,9.27
2019-01-05T14:31:01.429Z,9.93
2019-01-05T14:33:48.956Z,9.57
2019-01-05T14:36:25.053Z,9.37
2019-01-05T14:38:57.717Z,8.93
2019-01-05T14:41:27.790Z,10.27
2019-01-05T14:43:57.938Z,10.37
2019-01-05T14:46:37.154Z,10.17
2019-01-05T14:49:23.397Z,9.30
2019-01-05T14:52:00.129Z,9.03
2019-01-05T14:54:34.041Z,6.03
2019-01-05T14:57:06.551Z,7.50
2019-01-05T14:59:45.531Z,6.43
2019-01-05T15:02:18.040Z,5.97
2019-01-05T15:04:48.165Z,4.93
2019-01-05T15:07:18.190Z,5.80
2019-01-05T15:09:54.592Z,5.07
2019-01-05T15:12:40.344Z,4.83
2019-01-05T15:15:14.027Z,5.00
2019-01-05T15:17:44.688Z,4.60
2019-01-05T15:20:31.682Z,4.60
2019-01-05T15:23:07.909Z,4.03
2019-01-05T15:25:47.090Z,4.00
2019-01-05T15:28:17.100Z,4.13
2019-01-05T15:30:50.094Z,3.13
2019-01-05T15:33:36.339Z,3.33
2019-01-05T15:36:12.294Z,3.50
2019-01-05T15:38:48.111Z,4.00
2019-01-05T15:41:27.140Z,3.77
2019-01-05T15:44:00.052Z,3.60
2019-01-05T15:46:33.186Z,3.03
2019-01-05T15:49:21.203Z,3.10
2019-01-05T15:51:56.883Z,2.87
2019-01-05T15:54:30.011Z,2.90
2019-01-05T15:57:16.208Z,3.17
2019-01-05T15:59:51.950Z,3.47
2019-01-05T16:02:33.819Z,3.37
2019-01-05T16:05:03.846Z,3.47
2019-01-05T16:07:34.070Z,3.60
2019-01-05T16:10:10.291Z,3.80
2019-01-05T16:12:55.008Z,4.00
2019-01-05T16:15:30.593Z,4.83
2019-01-05T16:18:16.826Z,3.70
2019-01-05T16:21:05.510Z,3.87
2019-01-05T16:23:44.503Z,4.70
2019-01-05T16:26:14.545Z,5.97
2019-01-05T16:28:46.995Z,4.70
2019-01-05T16:31:33.000Z,5.03
2019-01-05T16:34:20.806Z,4.83
2019-01-05T16:37:07.285Z,5.23
2019-01-05T16:39:42.775Z,5.47
2019-01-05T16:42:21.376Z,5.90
2019-01-05T16:44:54.422Z,6.70
2019-01-05T16:47:39.499Z,6.50
2019-01-05T16:50:25.762Z,6.40
2019-01-05T16:53:11.225Z,5.93
2019-01-05T16:55:59.321Z,6.70
2019-01-05T16:58:43.537Z,5.93
2019-01-05T17:01:30.158Z,5.57
2019-01-05T17:04:16.882Z,5.80
2019-01-05T17:06:47.178Z,4.53
2019-01-05T17:09:33.370Z,5.20
2019-01-05T17:12:10.229Z,5.43
2019-01-05T17:14:43.725Z,5.67
2019-01-05T17:17:14.223Z,5.47
2019-01-05T17:19:54.416Z,6.00
2019-01-05T17:22:33.985Z,6.33
2019-01-05T17:25:16.055Z,6.20
2019-01-05T17:27:49.104Z,5.17
2019-01-05T17:30:35.749Z,6.20
2019-01-05T17:33:22.463Z,5.50
2019-01-05T17:36:08.667Z,5.00
2019-01-05T17:38:53.741Z,3.90
2019-01-05T17:41:26.542Z,4.00
2019-01-05T17:44:08.657Z,3.80
2019-01-05T17:46:38.660Z,4.00
2019-01-05T17:49:08.704Z,4.37
2019-01-05T17:51:47.273Z,5.00
2019-01-05T17:54:31.771Z,3.67
2019-01-05T17:57:17.119Z,4.70
2019-01-05T17:59:47.209Z,4.10
2019-01-05T18:02:17.382Z,4.57
2019-01-05T18:04:55.999Z,4.77
2019-01-05T18:07:31.656Z,4.73
2019-01-05T18:10:16.827Z,4.27
2019-01-05T18:13:00.212Z,4.23
2019-01-05T18:15:33.410Z,4.10
2019-01-05T18:18:06.724Z,4.03
2019-01-05T18:20:40.438Z,4.83
2019-01-05T18:23:10.772Z,4.43
2019-01-05T18:26:01.819Z,4.10
2019-01-05T18:28:38.359Z,4.53
2019-01-05T18:31:25.751Z,5.10
2019-01-05T18:34:01.741Z,4.87
2019-01-05T18:36:49.950Z,4.67
2019-01-05T18:39:30.170Z,5.13
2019-01-05T18:42:16.739Z,5.40
2019-01-05T18:45:03.363Z,4.87
2019-01-05T18:47:43.923Z,5.10
2019-01-05T18:50:23.557Z,4.60
2019-01-05T18:53:10.127Z,5.50
2019-01-05T18:55:48.896Z,5.60
2019-01-05T18:58:27.073Z,5.20
2019-01-05T19:01:15.090Z,5.03
2019-01-05T19:03:45.339Z,5.30
2019-01-05T19:06:15.581Z,5.97
2019-01-05T19:08:45.779Z,6.20
2019-01-05T19:11:28.022Z,7.03
2019-01-05T19:14:13.247Z,6.07
2019-01-05T19:16:49.436Z,5.47
2019-01-05T19:19:35.651Z,6.50
2019-01-05T19:22:20.182Z,5.80
2019-01-05T19:25:09.765Z,5.30
2019-01-05T19:27:57.428Z,5.63
2019-01-05T19:30:46.279Z,6.30
2019-01-05T19:33:32.688Z,6.23
2019-01-05T19:36:20.202Z,6.33
2019-01-05T19:38:56.731Z,6.87
2019-01-05T19:41:43.110Z,7.70
2019-01-05T19:44:19.287Z,8.47
2019-01-05T19:47:04.721Z,8.23
2019-01-05T19:49:51.487Z,8.70
2019-01-05T19:52:30.912Z,8.30
2019-01-05T19:55:07.411Z,23.00
2019-01-05T19:57:54.173Z,24.50
2019-01-05T20:00:40.919Z,25.53
2019-01-05T20:03:13.921Z,15.10
2019-01-05T20:05:43.952Z,130.33
2019-01-05T20:08:17.080Z,15.20
2019-01-05T20:11:04.893Z,9.40
2019-01-05T20:13:53.061Z,8.90
2019-01-05T20:16:39.924Z,8.60
2019-01-05T20:19:21.758Z,8.80
2019-01-05T20:21:53.333Z,10.27
2019-01-05T20:24:41.664Z,8.60
2019-01-05T20:27:14.682Z,8.63
2019-01-05T20:29:55.123Z,10.27
2019-01-05T20:32:33.973Z,10.23
2019-01-05T20:35:21.946Z,11.00
2019-01-05T20:38:10.333Z,9.93
2019-01-05T20:40:49.295Z,13.43
2019-01-05T20:43:19.338Z,11.73
2019-01-05T20:46:08.014Z,11.87
2019-01-05T20:48:44.134Z,13.87
2019-01-05T20:51:28.978Z,13.47
2019-01-05T20:54:14.891Z,12.70
2019-01-05T20:56:51.010Z,12.17
2019-01-05T20:59:32.826Z,11.90
2019-01-05T21:02:11.753Z,10.70
2019-01-05T21:04:54.284Z,10.30
2019-01-05T21:07:40.507Z,10.20
2019-01-05T21:10:16.737Z,11.17
2019-01-05T21:13:05.307Z,10.47
2019-01-05T21:15:51.757Z,11.07
2019-01-05T21:18:38.134Z,11.70
2019-01-05T21:21:08.137Z,10.77
2019-01-05T21:23:46.729Z,10.77
2019-01-05T21:26:24.516Z,11.27
2019-01-05T21:29:02.861Z,10.20
2019-01-05T21:31:32.852Z,11.10
2019-01-05T21:34:18.220Z,10.40
2019-01-05T21:36:48.223Z,11.13
2019-01-05T21:39:19.168Z,9.60
2019-01-05T21:41:55.298Z,11.27
2019-01-05T21:44:25.914Z,11.50
2019-01-05T21:47:13.679Z,10.77
2019-01-05T21:49:52.391Z,11.73
2019-01-05T21:52:25.382Z,12.30
2019-01-05T21:54:58.167Z,11.77
2019-01-05T21:57:33.922Z,11.93
2019-01-05T22:00:10.163Z,12.47
2019-01-05T22:02:40.174Z,12.20
2019-01-05T22:05:12.944Z,12.20
2019-01-05T22:07:42.947Z,12.53
2019-01-05T22:10:13.513Z,12.93
2019-01-05T22:12:58.828Z,11.93
2019-01-05T22:15:45.228Z,11.67
2019-01-05T22:18:18.774Z,12.77
2019-01-05T22:20:56.840Z,12.37
2019-01-05T22:23:26.984Z,12.13
2019-01-05T22:26:13.576Z,12.83
2019-01-05T22:28:46.714Z,12.60
2019-01-05T22:31:35.059Z,12.70
2019-01-05T22:34:11.457Z,12.67
2019-01-05T22:36:50.716Z,12.03
2019-01-05T22:39:36.335Z,12.93
2019-01-05T22:42:09.507Z,11.87
2019-01-05T22:44:42.645Z,11.50
2019-01-05T22:47:13.415Z,10.93
2019-01-05T22:49:49.961Z,10.67
2019-01-05T22:52:20.061Z,10.57
2019-01-05T22:55:08.611Z,11.63
2019-01-05T22:57:55.283Z,11.53
2019-01-05T23:00:34.263Z,11.03
2019-01-05T23:03:07.636Z,10.27
2019-01-05T23:05:41.041Z,10.90
2019-01-05T23:08:14.406Z,10.67
2019-01-05T23:10:56.927Z,10.27
2019-01-05T23:13:43.265Z,10.13
2019-01-05T23:16:13.477Z,10.10
2019-01-05T23:18:49.334Z,9.80
2019-01-05T23:21:19.614Z,7.90
2019-01-05T23:24:05.727Z,8.90
2019-01-05T23:26:38.061Z,8.00
2019-01-05T23:29:18.007Z,7.97
2019-01-05T23:31:55.128Z,6.87
2019-01-05T23:34:32.486Z,6.33
2019-01-05T23:37:11.500Z,6.43
2019-01-05T23:39:49.483Z,6.17
2019-01-05T23:42:19.863Z,7.37
2019-01-05T23:45:02.398Z,6.00
2019-01-05T23:47:38.097Z,5.70
2019-01-05T23:50:08.965Z,5.30
2019-01-05T23:52:55.431Z,6.43
2019-01-05T23:55:41.848Z,6.60
2019-01-05T23:58:39.669Z,7.03
